sensor_id;sensor_type;location;lat;lon;timestamp;P1;durP1;ratioP1;P2;durP2;ratioP2
74995;SDS011;63545;51.690;5.202;2024-01-07T00:01:11;26.33;;;14.53;;
74995;SDS011;63545;51.690;5.202;2024-01-07T00:03:36;27.67;;;15.70;;
74995;SDS011;63545;51.690;5.202;2024-01-07T00:06:02;27.57;;;14.73;;
74995;SDS011;63545;51.690;5.202;2024-01-07T00:08:27;27.88;;;14.13;;
74995;SDS011;63545;51.690;5.202;2024-01-07T00:10:53;24.67;;;14.03;;
74995;SDS011;63545;51.690;5.202;2024-01-07T00:13:18;30.47;;;15.07;;
74995;SDS011;63545;51.690;5.202;2024-01-07T00:15:43;26.30;;;14.00;;
74995;SDS011;63545;51.690;5.202;2024-01-07T00:18:08;28.10;;;14.47;;
74995;SDS011;63545;51.690;5.202;2024-01-07T00:20:34;26.98;;;14.18;;
74995;SDS011;63545;51.690;5.202;2024-01-07T00:23:00;29.25;;;15.00;;
74995;SDS011;63545;51.690;5.202;2024-01-07T00:25:26;33.43;;;15.73;;
74995;SDS011;63545;51.690;5.202;2024-01-07T00:27:51;28.20;;;15.25;;
74995;SDS011;63545;51.690;5.202;2024-01-07T00:30:20;30.52;;;15.13;;
74995;SDS011;63545;51.690;5.202;2024-01-07T00:32:45;29.30;;;14.80;;
74995;SDS011;63545;51.690;5.202;2024-01-07T00:35:11;28.37;;;15.83;;
74995;SDS011;63545;51.690;5.202;2024-01-07T00:37:36;28.37;;;15.40;;
74995;SDS011;63545;51.690;5.202;2024-01-07T00:40:02;28.95;;;15.68;;
74995;SDS011;63545;51.690;5.202;2024-01-07T00:42:28;29.95;;;15.73;;
74995;SDS011;63545;51.690;5.202;2024-01-07T00:44:54;30.33;;;15.17;;
74995;SDS011;63545;51.690;5.202;2024-01-07T00:47:19;30.77;;;15.93;;
74995;SDS011;63545;51.690;5.202;2024-01-07T00:49:44;29.73;;;14.77;;
74995;SDS011;63545;51.690;5.202;2024-01-07T00:52:10;32.33;;;16.37;;
74995;SDS011;63545;51.690;5.202;2024-01-07T00:54:35;29.33;;;14.95;;
74995;SDS011;63545;51.690;5.202;2024-01-07T00:57:01;33.07;;;15.10;;
74995;SDS011;63545;51.690;5.202;2024-01-07T00:59:28;30.50;;;16.80;;
74995;SDS011;63545;51.690;5.202;2024-01-07T01:01:53;25.50;;;13.82;;
74995;SDS011;63545;51.690;5.202;2024-01-07T01:04:19;29.97;;;15.13;;
74995;SDS011;63545;51.690;5.202;2024-01-07T01:06:44;32.30;;;16.70;;
74995;SDS011;63545;51.690;5.202;2024-01-07T01:09:10;32.07;;;17.00;;
74995;SDS011;63545;51.690;5.202;2024-01-07T01:11:35;30.47;;;15.70;;
74995;SDS011;63545;51.690;5.202;2024-01-07T01:14:00;31.75;;;16.80;;
74995;SDS011;63545;51.690;5.202;2024-01-07T01:16:26;25.92;;;13.93;;
74995;SDS011;63545;51.690;5.202;2024-01-07T01:18:51;27.43;;;13.97;;
74995;SDS011;63545;51.690;5.202;2024-01-07T01:21:16;26.70;;;14.07;;
74995;SDS011;63545;51.690;5.202;2024-01-07T01:23:42;33.03;;;15.17;;
74995;SDS011;63545;51.690;5.202;2024-01-07T01:26:08;31.00;;;14.27;;
74995;SDS011;63545;51.690;5.202;2024-01-07T01:28:34;28.20;;;14.40;;
74995;SDS011;63545;51.690;5.202;2024-01-07T01:30:59;33.70;;;16.33;;
74995;SDS011;63545;51.690;5.202;2024-01-07T01:33:24;30.23;;;15.50;;
74995;SDS011;63545;51.690;5.202;2024-01-07T01:35:50;31.70;;;16.87;;
74995;SDS011;63545;51.690;5.202;2024-01-07T01:38:15;31.50;;;15.30;;
74995;SDS011;63545;51.690;5.202;2024-01-07T01:40:40;33.83;;;16.03;;
74995;SDS011;63545;51.690;5.202;2024-01-07T01:43:05;34.20;;;15.47;;
74995;SDS011;63545;51.690;5.202;2024-01-07T01:45:31;31.95;;;15.45;;
74995;SDS011;63545;51.690;5.202;2024-01-07T01:47:56;34.20;;;16.17;;
74995;SDS011;63545;51.690;5.202;2024-01-07T01:50:21;35.20;;;16.83;;
74995;SDS011;63545;51.690;5.202;2024-01-07T01:52:47;39.10;;;16.43;;
74995;SDS011;63545;51.690;5.202;2024-01-07T01:55:13;35.38;;;16.05;;
74995;SDS011;63545;51.690;5.202;2024-01-07T01:57:38;35.70;;;15.07;;
74995;SDS011;63545;51.690;5.202;2024-01-07T02:00:05;35.47;;;16.33;;
74995;SDS011;63545;51.690;5.202;2024-01-07T02:02:31;35.38;;;16.02;;
74995;SDS011;63545;51.690;5.202;2024-01-07T02:04:59;38.65;;;16.38;;
74995;SDS011;63545;51.690;5.202;2024-01-07T02:07:27;31.63;;;14.27;;
74995;SDS011;63545;51.690;5.202;2024-01-07T02:09:53;33.33;;;14.27;;
74995;SDS011;63545;51.690;5.202;2024-01-07T02:12:19;28.80;;;14.27;;
74995;SDS011;63545;51.690;5.202;2024-01-07T02:14:44;37.87;;;15.20;;
74995;SDS011;63545;51.690;5.202;2024-01-07T02:17:09;35.10;;;15.93;;
74995;SDS011;63545;51.690;5.202;2024-01-07T02:19:35;34.80;;;16.25;;
74995;SDS011;63545;51.690;5.202;2024-01-07T02:22:00;32.40;;;15.40;;
74995;SDS011;63545;51.690;5.202;2024-01-07T02:24:25;30.97;;;14.97;;
74995;SDS011;63545;51.690;5.202;2024-01-07T02:26:51;31.90;;;12.90;;
74995;SDS011;63545;51.690;5.202;2024-01-07T02:29:16;36.23;;;14.80;;
74995;SDS011;63545;51.690;5.202;2024-01-07T02:31:41;31.43;;;13.37;;
74995;SDS011;63545;51.690;5.202;2024-01-07T02:34:08;34.17;;;14.80;;
74995;SDS011;63545;51.690;5.202;2024-01-07T02:36:34;30.02;;;13.02;;
74995;SDS011;63545;51.690;5.202;2024-01-07T02:39:00;37.30;;;15.00;;
74995;SDS011;63545;51.690;5.202;2024-01-07T02:41:25;35.73;;;15.20;;
74995;SDS011;63545;51.690;5.202;2024-01-07T02:43:51;34.63;;;14.82;;
74995;SDS011;63545;51.690;5.202;2024-01-07T02:46:17;37.40;;;16.27;;
74995;SDS011;63545;51.690;5.202;2024-01-07T02:48:42;37.97;;;16.97;;
74995;SDS011;63545;51.690;5.202;2024-01-07T02:51:08;41.03;;;19.95;;
74995;SDS011;63545;51.690;5.202;2024-01-07T02:53:33;40.53;;;17.03;;
74995;SDS011;63545;51.690;5.202;2024-01-07T02:55:59;43.63;;;18.52;;
74995;SDS011;63545;51.690;5.202;2024-01-07T02:58:24;39.70;;;17.17;;
74995;SDS011;63545;51.690;5.202;2024-01-07T03:00:50;47.90;;;19.00;;
74995;SDS011;63545;51.690;5.202;2024-01-07T03:03:15;35.83;;;15.90;;
74995;SDS011;63545;51.690;5.202;2024-01-07T03:05:41;50.75;;;20.90;;
74995;SDS011;63545;51.690;5.202;2024-01-07T03:08:06;49.13;;;21.00;;
74995;SDS011;63545;51.690;5.202;2024-01-07T03:10:32;45.50;;;20.05;;
74995;SDS011;63545;51.690;5.202;2024-01-07T03:12:57;50.67;;;22.05;;
74995;SDS011;63545;51.690;5.202;2024-01-07T03:15:24;49.07;;;17.43;;
74995;SDS011;63545;51.690;5.202;2024-01-07T03:17:50;51.55;;;22.17;;
74995;SDS011;63545;51.690;5.202;2024-01-07T03:20:15;34.83;;;15.00;;
74995;SDS011;63545;51.690;5.202;2024-01-07T03:22:40;49.00;;;20.77;;
74995;SDS011;63545;51.690;5.202;2024-01-07T03:25:06;42.97;;;20.67;;
74995;SDS011;63545;51.690;5.202;2024-01-07T03:27:32;42.88;;;19.38;;
74995;SDS011;63545;51.690;5.202;2024-01-07T03:29:57;47.07;;;19.37;;
74995;SDS011;63545;51.690;5.202;2024-01-07T03:32:22;46.50;;;20.97;;
74995;SDS011;63545;51.690;5.202;2024-01-07T03:34:48;43.30;;;19.03;;
74995;SDS011;63545;51.690;5.202;2024-01-07T03:37:13;44.60;;;20.20;;
74995;SDS011;63545;51.690;5.202;2024-01-07T03:39:38;51.67;;;20.50;;
74995;SDS011;63545;51.690;5.202;2024-01-07T03:42:04;46.20;;;20.30;;
74995;SDS011;63545;51.690;5.202;2024-01-07T03:44:36;45.42;;;19.90;;
74995;SDS011;63545;51.690;5.202;2024-01-07T03:47:01;44.17;;;19.23;;
74995;SDS011;63545;51.690;5.202;2024-01-07T03:49:26;47.60;;;21.10;;
74995;SDS011;63545;51.690;5.202;2024-01-07T03:51:52;48.53;;;20.70;;
74995;SDS011;63545;51.690;5.202;2024-01-07T03:54:17;46.45;;;20.17;;
74995;SDS011;63545;51.690;5.202;2024-01-07T03:56:42;42.05;;;18.80;;
74995;SDS011;63545;51.690;5.202;2024-01-07T03:59:08;48.27;;;20.27;;
74995;SDS011;63545;51.690;5.202;2024-01-07T04:01:33;43.17;;;19.73;;
74995;SDS011;63545;51.690;5.202;2024-01-07T04:03:58;42.03;;;20.23;;
74995;SDS011;63545;51.690;5.202;2024-01-07T04:06:23;41.30;;;20.03;;
74995;SDS011;63545;51.690;5.202;2024-01-07T04:08:49;42.33;;;19.70;;
74995;SDS011;63545;51.690;5.202;2024-01-07T04:11:14;43.83;;;20.87;;
74995;SDS011;63545;51.690;5.202;2024-01-07T04:13:39;43.03;;;18.87;;
74995;SDS011;63545;51.690;5.202;2024-01-07T04:16:05;38.43;;;17.73;;
74995;SDS011;63545;51.690;5.202;2024-01-07T04:18:30;41.80;;;18.48;;
74995;SDS011;63545;51.690;5.202;2024-01-07T04:20:55;44.70;;;19.27;;
74995;SDS011;63545;51.690;5.202;2024-01-07T04:23:21;41.90;;;18.87;;
74995;SDS011;63545;51.690;5.202;2024-01-07T04:25:46;42.40;;;19.43;;
74995;SDS011;63545;51.690;5.202;2024-01-07T04:28:11;44.97;;;20.00;;
74995;SDS011;63545;51.690;5.202;2024-01-07T04:30:37;37.47;;;17.43;;
74995;SDS011;63545;51.690;5.202;2024-01-07T04:33:02;42.23;;;19.80;;
74995;SDS011;63545;51.690;5.202;2024-01-07T04:35:28;40.85;;;18.70;;
74995;SDS011;63545;51.690;5.202;2024-01-07T04:37:53;43.67;;;18.83;;
74995;SDS011;63545;51.690;5.202;2024-01-07T04:40:19;40.33;;;19.37;;
74995;SDS011;63545;51.690;5.202;2024-01-07T04:42:44;35.77;;;16.53;;
74995;SDS011;63545;51.690;5.202;2024-01-07T04:45:10;41.65;;;17.85;;
74995;SDS011;63545;51.690;5.202;2024-01-07T04:47:35;43.13;;;18.70;;
74995;SDS011;63545;51.690;5.202;2024-01-07T04:50:00;37.37;;;16.50;;
74995;SDS011;63545;51.690;5.202;2024-01-07T04:52:26;45.63;;;18.87;;
74995;SDS011;63545;51.690;5.202;2024-01-07T04:54:55;38.75;;;18.02;;
74995;SDS011;63545;51.690;5.202;2024-01-07T04:57:21;43.88;;;18.83;;
74995;SDS011;63545;51.690;5.202;2024-01-07T04:59:47;44.35;;;20.08;;
74995;SDS011;63545;51.690;5.202;2024-01-07T05:02:13;45.45;;;19.55;;
74995;SDS011;63545;51.690;5.202;2024-01-07T05:04:39;46.03;;;20.57;;
74995;SDS011;63545;51.690;5.202;2024-01-07T05:07:04;45.85;;;19.75;;
74995;SDS011;63545;51.690;5.202;2024-01-07T05:09:31;46.40;;;20.13;;
74995;SDS011;63545;51.690;5.202;2024-01-07T05:11:57;47.78;;;20.35;;
74995;SDS011;63545;51.690;5.202;2024-01-07T05:14:22;43.63;;;20.00;;
74995;SDS011;63545;51.690;5.202;2024-01-07T05:16:47;48.77;;;19.67;;
74995;SDS011;63545;51.690;5.202;2024-01-07T05:19:13;40.33;;;17.50;;
74995;SDS011;63545;51.690;5.202;2024-01-07T05:21:38;40.88;;;16.92;;
74995;SDS011;63545;51.690;5.202;2024-01-07T05:24:04;38.95;;;16.50;;
74995;SDS011;63545;51.690;5.202;2024-01-07T05:26:30;37.80;;;17.00;;
74995;SDS011;63545;51.690;5.202;2024-01-07T05:28:55;26.08;;;13.38;;
74995;SDS011;63545;51.690;5.202;2024-01-07T05:31:21;35.63;;;15.97;;
74995;SDS011;63545;51.690;5.202;2024-01-07T05:33:46;37.23;;;16.43;;
74995;SDS011;63545;51.690;5.202;2024-01-07T05:36:12;30.23;;;14.93;;
74995;SDS011;63545;51.690;5.202;2024-01-07T05:38:37;22.95;;;12.55;;
74995;SDS011;63545;51.690;5.202;2024-01-07T05:41:03;30.13;;;14.52;;
74995;SDS011;63545;51.690;5.202;2024-01-07T05:43:28;26.15;;;14.13;;
74995;SDS011;63545;51.690;5.202;2024-01-07T05:45:54;29.33;;;14.33;;
74995;SDS011;63545;51.690;5.202;2024-01-07T05:48:22;28.93;;;15.83;;
74995;SDS011;63545;51.690;5.202;2024-01-07T05:50:48;31.20;;;15.43;;
74995;SDS011;63545;51.690;5.202;2024-01-07T05:53:14;34.60;;;17.45;;
74995;SDS011;63545;51.690;5.202;2024-01-07T05:55:39;28.33;;;12.57;;
74995;SDS011;63545;51.690;5.202;2024-01-07T05:58:05;36.27;;;17.53;;
74995;SDS011;63545;51.690;5.202;2024-01-07T06:00:30;34.23;;;16.87;;
74995;SDS011;63545;51.690;5.202;2024-01-07T06:02:55;34.07;;;16.77;;
74995;SDS011;63545;51.690;5.202;2024-01-07T06:05:21;32.00;;;16.27;;
74995;SDS011;63545;51.690;5.202;2024-01-07T06:07:46;26.50;;;14.05;;
74995;SDS011;63545;51.690;5.202;2024-01-07T06:10:11;31.93;;;16.70;;
74995;SDS011;63545;51.690;5.202;2024-01-07T06:12:37;34.87;;;16.83;;
74995;SDS011;63545;51.690;5.202;2024-01-07T06:15:02;39.03;;;17.77;;
74995;SDS011;63545;51.690;5.202;2024-01-07T06:17:28;37.87;;;17.47;;
74995;SDS011;63545;51.690;5.202;2024-01-07T06:19:53;39.28;;;19.38;;
74995;SDS011;63545;51.690;5.202;2024-01-07T06:22:18;40.60;;;18.95;;
74995;SDS011;63545;51.690;5.202;2024-01-07T06:24:44;41.27;;;19.57;;
74995;SDS011;63545;51.690;5.202;2024-01-07T06:27:09;37.13;;;19.17;;
74995;SDS011;63545;51.690;5.202;2024-01-07T06:29:34;32.83;;;17.07;;
74995;SDS011;63545;51.690;5.202;2024-01-07T06:32:00;37.83;;;18.63;;
74995;SDS011;63545;51.690;5.202;2024-01-07T06:34:25;36.47;;;18.73;;
74995;SDS011;63545;51.690;5.202;2024-01-07T06:36:50;37.63;;;18.80;;
74995;SDS011;63545;51.690;5.202;2024-01-07T06:39:17;37.13;;;18.73;;
74995;SDS011;63545;51.690;5.202;2024-01-07T06:41:42;37.07;;;17.33;;
74995;SDS011;63545;51.690;5.202;2024-01-07T06:44:07;37.95;;;18.63;;
74995;SDS011;63545;51.690;5.202;2024-01-07T06:46:33;33.33;;;17.17;;
74995;SDS011;63545;51.690;5.202;2024-01-07T06:48:59;31.53;;;17.50;;
74995;SDS011;63545;51.690;5.202;2024-01-07T06:51:25;35.30;;;17.45;;
74995;SDS011;63545;51.690;5.202;2024-01-07T06:53:50;32.40;;;16.37;;
74995;SDS011;63545;51.690;5.202;2024-01-07T06:56:15;31.63;;;16.67;;
74995;SDS011;63545;51.690;5.202;2024-01-07T06:58:41;28.67;;;15.63;;
74995;SDS011;63545;51.690;5.202;2024-01-07T07:01:06;28.37;;;15.63;;
74995;SDS011;63545;51.690;5.202;2024-01-07T07:03:32;32.38;;;16.30;;
74995;SDS011;63545;51.690;5.202;2024-01-07T07:05:57;29.47;;;15.90;;
74995;SDS011;63545;51.690;5.202;2024-01-07T07:08:23;30.67;;;16.20;;
74995;SDS011;63545;51.690;5.202;2024-01-07T07:10:48;28.23;;;14.07;;
74995;SDS011;63545;51.690;5.202;2024-01-07T07:13:13;27.93;;;14.77;;
74995;SDS011;63545;51.690;5.202;2024-01-07T07:15:39;25.27;;;14.48;;
74995;SDS011;63545;51.690;5.202;2024-01-07T07:18:05;26.10;;;14.03;;
74995;SDS011;63545;51.690;5.202;2024-01-07T07:20:30;27.45;;;14.48;;
74995;SDS011;63545;51.690;5.202;2024-01-07T07:22:55;20.63;;;11.65;;
74995;SDS011;63545;51.690;5.202;2024-01-07T07:25:21;27.33;;;14.10;;
74995;SDS011;63545;51.690;5.202;2024-01-07T07:27:46;24.83;;;14.70;;
74995;SDS011;63545;51.690;5.202;2024-01-07T07:30:12;26.37;;;13.87;;
74995;SDS011;63545;51.690;5.202;2024-01-07T07:32:38;23.63;;;13.63;;
74995;SDS011;63545;51.690;5.202;2024-01-07T07:35:05;24.67;;;13.30;;
74995;SDS011;63545;51.690;5.202;2024-01-07T07:37:32;22.42;;;13.75;;
74995;SDS011;63545;51.690;5.202;2024-01-07T07:39:57;28.17;;;15.10;;
74995;SDS011;63545;51.690;5.202;2024-01-07T07:42:23;26.43;;;15.13;;
74995;SDS011;63545;51.690;5.202;2024-01-07T07:44:48;22.67;;;12.93;;
74995;SDS011;63545;51.690;5.202;2024-01-07T07:47:13;21.03;;;12.27;;
74995;SDS011;63545;51.690;5.202;2024-01-07T07:49:38;22.27;;;13.90;;
74995;SDS011;63545;51.690;5.202;2024-01-07T07:52:05;25.27;;;13.85;;
74995;SDS011;63545;51.690;5.202;2024-01-07T07:54:31;24.98;;;13.88;;
74995;SDS011;63545;51.690;5.202;2024-01-07T07:56:57;24.47;;;13.70;;
74995;SDS011;63545;51.690;5.202;2024-01-07T07:59:23;23.70;;;12.68;;
74995;SDS011;63545;51.690;5.202;2024-01-07T08:01:48;22.13;;;12.90;;
74995;SDS011;63545;51.690;5.202;2024-01-07T08:04:14;22.83;;;12.55;;
74995;SDS011;63545;51.690;5.202;2024-01-07T08:06:39;23.50;;;12.83;;
74995;SDS011;63545;51.690;5.202;2024-01-07T08:09:05;20.40;;;12.00;;
74995;SDS011;63545;51.690;5.202;2024-01-07T08:11:30;22.98;;;13.00;;
74995;SDS011;63545;51.690;5.202;2024-01-07T08:13:55;23.83;;;12.50;;
74995;SDS011;63545;51.690;5.202;2024-01-07T08:16:22;25.85;;;13.52;;
74995;SDS011;63545;51.690;5.202;2024-01-07T08:18:48;24.65;;;14.43;;
74995;SDS011;63545;51.690;5.202;2024-01-07T08:21:13;23.63;;;14.13;;
74995;SDS011;63545;51.690;5.202;2024-01-07T08:23:38;24.70;;;14.80;;
74995;SDS011;63545;51.690;5.202;2024-01-07T08:26:04;24.13;;;12.90;;
74995;SDS011;63545;51.690;5.202;2024-01-07T08:28:29;27.20;;;14.75;;
74995;SDS011;63545;51.690;5.202;2024-01-07T08:30:55;26.53;;;14.83;;
74995;SDS011;63545;51.690;5.202;2024-01-07T08:33:21;24.13;;;13.70;;
74995;SDS011;63545;51.690;5.202;2024-01-07T08:35:46;24.30;;;13.68;;
74995;SDS011;63545;51.690;5.202;2024-01-07T08:38:11;26.03;;;14.10;;
74995;SDS011;63545;51.690;5.202;2024-01-07T08:40:37;25.13;;;12.87;;
74995;SDS011;63545;51.690;5.202;2024-01-07T08:43:02;24.50;;;13.60;;
74995;SDS011;63545;51.690;5.202;2024-01-07T08:45:27;25.13;;;13.63;;
74995;SDS011;63545;51.690;5.202;2024-01-07T08:47:53;24.23;;;13.63;;
74995;SDS011;63545;51.690;5.202;2024-01-07T08:50:19;23.77;;;13.00;;
74995;SDS011;63545;51.690;5.202;2024-01-07T08:52:44;24.02;;;11.80;;
74995;SDS011;63545;51.690;5.202;2024-01-07T08:55:11;23.80;;;12.80;;
74995;SDS011;63545;51.690;5.202;2024-01-07T08:57:37;23.02;;;12.38;;
74995;SDS011;63545;51.690;5.202;2024-01-07T09:00:03;22.93;;;12.40;;
74995;SDS011;63545;51.690;5.202;2024-01-07T09:02:30;23.80;;;12.38;;
74995;SDS011;63545;51.690;5.202;2024-01-07T09:04:55;24.53;;;13.93;;
74995;SDS011;63545;51.690;5.202;2024-01-07T09:07:22;20.05;;;11.93;;
74995;SDS011;63545;51.690;5.202;2024-01-07T09:09:48;28.37;;;12.40;;
74995;SDS011;63545;51.690;5.202;2024-01-07T09:12:13;24.93;;;13.10;;
74995;SDS011;63545;51.690;5.202;2024-01-07T09:14:38;21.58;;;12.93;;
74995;SDS011;63545;51.690;5.202;2024-01-07T09:17:05;24.27;;;13.10;;
74995;SDS011;63545;51.690;5.202;2024-01-07T09:19:30;22.03;;;12.60;;
74995;SDS011;63545;51.690;5.202;2024-01-07T09:21:55;18.52;;;10.52;;
74995;SDS011;63545;51.690;5.202;2024-01-07T09:24:21;20.58;;;12.07;;
74995;SDS011;63545;51.690;5.202;2024-01-07T09:26:46;22.70;;;13.77;;
74995;SDS011;63545;51.690;5.202;2024-01-07T09:29:11;24.60;;;15.07;;
74995;SDS011;63545;51.690;5.202;2024-01-07T09:31:37;23.93;;;13.13;;
74995;SDS011;63545;51.690;5.202;2024-01-07T09:34:02;19.00;;;12.00;;
74995;SDS011;63545;51.690;5.202;2024-01-07T09:36:29;22.83;;;13.35;;
74995;SDS011;63545;51.690;5.202;2024-01-07T09:38:54;18.00;;;12.27;;
74995;SDS011;63545;51.690;5.202;2024-01-07T09:41:19;17.17;;;11.00;;
74995;SDS011;63545;51.690;5.202;2024-01-07T09:43:45;22.43;;;12.27;;
74995;SDS011;63545;51.690;5.202;2024-01-07T09:46:10;19.13;;;12.33;;
74995;SDS011;63545;51.690;5.202;2024-01-07T09:48:35;22.80;;;12.53;;
74995;SDS011;63545;51.690;5.202;2024-01-07T09:51:01;17.67;;;11.47;;
74995;SDS011;63545;51.690;5.202;2024-01-07T09:53:29;16.42;;;9.30;;
74995;SDS011;63545;51.690;5.202;2024-01-07T09:58:46;17.47;;;10.37;;
74995;SDS011;63545;51.690;5.202;2024-01-07T10:01:17;15.63;;;9.95;;
74995;SDS011;63545;51.690;5.202;2024-01-07T10:03:43;17.55;;;10.10;;
74995;SDS011;63545;51.690;5.202;2024-01-07T10:06:10;15.73;;;10.33;;
74995;SDS011;63545;51.690;5.202;2024-01-07T10:08:36;16.77;;;9.90;;
74995;SDS011;63545;51.690;5.202;2024-01-07T10:11:02;15.25;;;10.18;;
74995;SDS011;63545;51.690;5.202;2024-01-07T10:13:28;14.07;;;9.35;;
74995;SDS011;63545;51.690;5.202;2024-01-07T10:15:53;17.50;;;9.85;;
74995;SDS011;63545;51.690;5.202;2024-01-07T10:18:19;16.33;;;10.10;;
74995;SDS011;63545;51.690;5.202;2024-01-07T10:20:45;19.13;;;10.77;;
74995;SDS011;63545;51.690;5.202;2024-01-07T10:23:10;16.08;;;10.35;;
74995;SDS011;63545;51.690;5.202;2024-01-07T10:25:36;15.40;;;9.27;;
74995;SDS011;63545;51.690;5.202;2024-01-07T10:28:02;18.80;;;11.63;;
74995;SDS011;63545;51.690;5.202;2024-01-07T10:30:28;23.35;;;11.27;;
74995;SDS011;63545;51.690;5.202;2024-01-07T10:32:57;17.67;;;10.63;;
74995;SDS011;63545;51.690;5.202;2024-01-07T10:35:27;17.25;;;10.73;;
74995;SDS011;63545;51.690;5.202;2024-01-07T10:37:58;16.92;;;10.50;;
74995;SDS011;63545;51.690;5.202;2024-01-07T10:40:26;16.38;;;10.60;;
74995;SDS011;63545;51.690;5.202;2024-01-07T10:42:52;19.65;;;11.05;;
74995;SDS011;63545;51.690;5.202;2024-01-07T10:45:17;17.37;;;10.93;;
74995;SDS011;63545;51.690;5.202;2024-01-07T10:47:43;17.57;;;10.33;;
74995;SDS011;63545;51.690;5.202;2024-01-07T10:50:12;19.27;;;10.38;;
74995;SDS011;63545;51.690;5.202;2024-01-07T10:52:39;19.15;;;11.13;;
74995;SDS011;63545;51.690;5.202;2024-01-07T10:55:08;16.42;;;9.90;;
74995;SDS011;63545;51.690;5.202;2024-01-07T10:57:34;20.02;;;11.18;;
74995;SDS011;63545;51.690;5.202;2024-01-07T11:00:10;17.95;;;11.15;;
74995;SDS011;63545;51.690;5.202;2024-01-07T11:03:04;17.00;;;9.85;;
74995;SDS011;63545;51.690;5.202;2024-01-07T11:05:37;24.20;;;11.20;;
74995;SDS011;63545;51.690;5.202;2024-01-07T11:08:19;21.73;;;10.43;;
74995;SDS011;63545;51.690;5.202;2024-01-07T11:10:48;16.30;;;8.90;;
74995;SDS011;63545;51.690;5.202;2024-01-07T11:16:05;16.23;;;9.82;;
74995;SDS011;63545;51.690;5.202;2024-01-07T11:18:37;19.00;;;10.07;;
74995;SDS011;63545;51.690;5.202;2024-01-07T11:21:03;15.20;;;8.93;;
74995;SDS011;63545;51.690;5.202;2024-01-07T11:25:59;17.75;;;9.32;;
74995;SDS011;63545;51.690;5.202;2024-01-07T11:31:13;17.85;;;9.32;;
74995;SDS011;63545;51.690;5.202;2024-01-07T11:33:58;18.00;;;9.35;;
74995;SDS011;63545;51.690;5.202;2024-01-07T11:36:24;15.50;;;8.17;;
74995;SDS011;63545;51.690;5.202;2024-01-07T11:38:51;14.57;;;8.48;;
74995;SDS011;63545;51.690;5.202;2024-01-07T11:41:18;14.73;;;8.32;;
74995;SDS011;63545;51.690;5.202;2024-01-07T11:43:55;13.90;;;7.82;;
74995;SDS011;63545;51.690;5.202;2024-01-07T11:46:22;15.93;;;8.35;;
74995;SDS011;63545;51.690;5.202;2024-01-07T11:48:48;15.87;;;8.77;;
74995;SDS011;63545;51.690;5.202;2024-01-07T11:51:15;15.30;;;7.93;;
74995;SDS011;63545;51.690;5.202;2024-01-07T11:53:41;13.85;;;7.38;;
74995;SDS011;63545;51.690;5.202;2024-01-07T11:56:08;14.80;;;8.32;;
74995;SDS011;63545;51.690;5.202;2024-01-07T11:58:33;12.97;;;7.43;;
74995;SDS011;63545;51.690;5.202;2024-01-07T12:00:59;12.55;;;7.78;;
74995;SDS011;63545;51.690;5.202;2024-01-07T12:03:24;12.50;;;8.00;;
74995;SDS011;63545;51.690;5.202;2024-01-07T12:05:49;12.43;;;6.73;;
74995;SDS011;63545;51.690;5.202;2024-01-07T12:08:15;13.43;;;7.70;;
74995;SDS011;63545;51.690;5.202;2024-01-07T12:10:41;12.50;;;7.25;;
74995;SDS011;63545;51.690;5.202;2024-01-07T12:13:06;10.97;;;7.77;;
74995;SDS011;63545;51.690;5.202;2024-01-07T12:15:33;9.35;;;6.20;;
74995;SDS011;63545;51.690;5.202;2024-01-07T12:17:59;12.70;;;6.70;;
74995;SDS011;63545;51.690;5.202;2024-01-07T12:20:26;12.88;;;7.00;;
74995;SDS011;63545;51.690;5.202;2024-01-07T12:22:52;10.53;;;6.70;;
74995;SDS011;63545;51.690;5.202;2024-01-07T12:25:22;9.82;;;5.97;;
74995;SDS011;63545;51.690;5.202;2024-01-07T12:27:49;11.52;;;7.18;;
74995;SDS011;63545;51.690;5.202;2024-01-07T12:30:17;10.00;;;5.82;;
74995;SDS011;63545;51.690;5.202;2024-01-07T12:32:43;11.18;;;6.68;;
74995;SDS011;63545;51.690;5.202;2024-01-07T12:35:10;9.50;;;6.13;;
74995;SDS011;63545;51.690;5.202;2024-01-07T12:37:35;10.75;;;6.60;;
74995;SDS011;63545;51.690;5.202;2024-01-07T12:40:02;11.73;;;6.93;;
74995;SDS011;63545;51.690;5.202;2024-01-07T12:42:27;11.23;;;6.50;;
74995;SDS011;63545;51.690;5.202;2024-01-07T12:44:53;13.30;;;7.90;;
74995;SDS011;63545;51.690;5.202;2024-01-07T12:47:19;26.10;;;7.90;;
74995;SDS011;63545;51.690;5.202;2024-01-07T12:49:45;10.27;;;7.25;;
74995;SDS011;63545;51.690;5.202;2024-01-07T12:52:10;9.23;;;7.07;;
74995;SDS011;63545;51.690;5.202;2024-01-07T12:54:38;11.07;;;7.00;;
74995;SDS011;63545;51.690;5.202;2024-01-07T12:57:03;11.55;;;7.05;;
74995;SDS011;63545;51.690;5.202;2024-01-07T12:59:29;11.60;;;6.80;;
74995;SDS011;63545;51.690;5.202;2024-01-07T13:01:54;8.70;;;5.22;;
74995;SDS011;63545;51.690;5.202;2024-01-07T13:04:20;7.10;;;5.10;;
74995;SDS011;63545;51.690;5.202;2024-01-07T13:06:45;7.20;;;5.20;;
74995;SDS011;63545;51.690;5.202;2024-01-07T13:09:11;5.43;;;3.83;;
74995;SDS011;63545;51.690;5.202;2024-01-07T13:11:36;6.60;;;4.75;;
74995;SDS011;63545;51.690;5.202;2024-01-07T13:14:02;8.73;;;4.67;;
74995;SDS011;63545;51.690;5.202;2024-01-07T13:16:28;8.20;;;4.40;;
74995;SDS011;63545;51.690;5.202;2024-01-07T13:18:53;6.13;;;4.38;;
74995;SDS011;63545;51.690;5.202;2024-01-07T13:21:19;7.53;;;4.17;;
74995;SDS011;63545;51.690;5.202;2024-01-07T13:23:45;8.15;;;4.32;;
74995;SDS011;63545;51.690;5.202;2024-01-07T13:26:11;7.90;;;4.10;;
74995;SDS011;63545;51.690;5.202;2024-01-07T13:28:36;5.60;;;3.97;;
74995;SDS011;63545;51.690;5.202;2024-01-07T13:31:01;6.33;;;4.10;;
74995;SDS011;63545;51.690;5.202;2024-01-07T13:33:28;4.72;;;3.17;;
74995;SDS011;63545;51.690;5.202;2024-01-07T13:35:54;5.80;;;3.25;;
74995;SDS011;63545;51.690;5.202;2024-01-07T13:38:19;3.93;;;2.90;;
74995;SDS011;63545;51.690;5.202;2024-01-07T13:40:44;4.30;;;3.00;;
74995;SDS011;63545;51.690;5.202;2024-01-07T13:43:10;4.15;;;2.65;;
74995;SDS011;63545;51.690;5.202;2024-01-07T13:45:35;5.77;;;3.10;;
74995;SDS011;63545;51.690;5.202;2024-01-07T13:48:01;3.73;;;2.57;;
74995;SDS011;63545;51.690;5.202;2024-01-07T13:50:26;5.40;;;3.00;;
74995;SDS011;63545;51.690;5.202;2024-01-07T13:52:51;6.03;;;3.00;;
74995;SDS011;63545;51.690;5.202;2024-01-07T13:55:17;4.50;;;3.17;;
74995;SDS011;63545;51.690;5.202;2024-01-07T13:57:42;7.18;;;2.47;;
74995;SDS011;63545;51.690;5.202;2024-01-07T14:00:08;4.90;;;2.73;;
74995;SDS011;63545;51.690;5.202;2024-01-07T14:02:34;4.13;;;2.55;;
74995;SDS011;63545;51.690;5.202;2024-01-07T14:05:02;4.93;;;2.90;;
74995;SDS011;63545;51.690;5.202;2024-01-07T14:07:31;4.75;;;2.95;;
74995;SDS011;63545;51.690;5.202;2024-01-07T14:09:56;4.80;;;2.83;;
74995;SDS011;63545;51.690;5.202;2024-01-07T14:12:21;4.18;;;2.42;;
74995;SDS011;63545;51.690;5.202;2024-01-07T14:14:47;6.47;;;2.90;;
74995;SDS011;63545;51.690;5.202;2024-01-07T14:17:12;4.57;;;2.87;;
74995;SDS011;63545;51.690;5.202;2024-01-07T14:19:37;3.87;;;2.70;;
74995;SDS011;63545;51.690;5.202;2024-01-07T14:22:03;5.17;;;2.50;;
74995;SDS011;63545;51.690;5.202;2024-01-07T14:24:28;3.80;;;2.37;;
74995;SDS011;63545;51.690;5.202;2024-01-07T14:26:53;8.10;;;2.70;;
74995;SDS011;63545;51.690;5.202;2024-01-07T14:29:19;3.70;;;2.37;;